Time;durP1;ratioP1;P1;durP2;ratioP2;P2;SDS_P1;SDS_P2;PMS_P1;PMS_P2;Temp;Humidity;BMP_temperature;BMP_pressure;BME280_temperature;BME280_humidity;BME280_pressure;Samples;Min_cycle;Max_cycle;Signal;HPM_P1;HPM_P2
2022/11/01 00:00:20;;;;;;;21.57;11.57;;;;;;;;;;5053637;28;20422;-74
2022/11/01 00:02:46;;;;;;;20.25;11.80;;;;;;;;;;5037157;28;20938;-76
2022/11/01 00:05:12;;;;;;;22.88;11.90;;;;;;;;;;5053840;28;20887;-76
2022/11/01 00:07:38;;;;;;;20.17;10.85;;;;;;;;;;5040064;28;20770;-75
2022/11/01 00:10:04;;;;;;;17.13;10.63;;;14.00;99.90;;;;;;5071705;28;20425;-75
2022/11/01 00:12:30;;;;;;;25.90;11.00;;;13.90;99.90;;;;;;5053869;28;20425;-75
2022/11/01 00:14:56;;;;;;;20.70;11.10;;;;;;;;;;5056637;28;20432;-75
2022/11/01 00:17:23;;;;;;;20.43;11.00;;;;;;;;;;5072344;28;20452;-75
2022/11/01 00:19:48;;;;;;;18.35;10.90;;;13.90;99.90;;;;;;5072100;28;20508;-76
2022/11/01 00:22:14;;;;;;;17.73;10.40;;;;;;;;;;5039476;28;20965;-75
2022/11/01 00:24:40;;;;;;;16.88;9.88;;;13.90;99.90;;;;;;5055560;28;20448;-76
2022/11/01 00:27:06;;;;;;;19.30;10.80;;;;;;;;;;5072863;28;20777;-75
2022/11/01 00:29:32;;;;;;;18.88;10.95;;;;;;;;;;5056202;28;20426;-75
2022/11/01 00:31:59;;;;;;;18.30;10.55;;;;;;;;;;5070145;28;20410;-75
2022/11/01 00:34:25;;;;;;;16.98;10.25;;;;;;;;;;5052770;28;20499;-75
2022/11/01 00:36:51;;;;;;;21.02;10.40;;;;;;;;;;5036853;28;20399;-75
2022/11/01 00:39:17;;;;;;;19.33;10.57;;;;;;;;;;5057279;28;20514;-75
2022/11/01 00:41:43;;;;;;;18.38;10.15;;;;;;;;;;5052869;28;20907;-75
2022/11/01 00:44:09;;;;;;;21.75;9.57;;;14.10;99.90;;;;;;5056202;28;20422;-75
2022/11/01 00:46:35;;;;;;;15.93;9.40;;;;;;;;;;5055561;28;20495;-74
2022/11/01 00:49:01;;;;;;;17.00;9.55;;;;;;;;;;5040034;28;20426;-74
2022/11/01 00:51:27;;;;;;;17.58;10.15;;;;;;;;;;5070202;28;20421;-74
2022/11/01 00:53:53;;;;;;;16.95;9.63;;;13.90;99.90;;;;;;5037668;28;20422;-74
2022/11/01 00:56:19;;;;;;;17.23;9.98;;;;;;;;;;5039887;28;20417;-75
2022/11/01 00:58:45;;;;;;;17.55;10.07;;;;;;;;;;5073556;28;20402;-75
2022/11/01 01:01:11;;;;;;;17.55;9.57;;;;;;;;;;5044877;28;20770;-75
2022/11/01 01:03:37;;;;;;;17.23;9.23;;;;;;;;;;5056688;28;20394;-75
2022/11/01 01:06:03;;;;;;;15.20;9.33;;;;;;;;;;5055027;28;20418;-74
2022/11/01 01:08:30;;;;;;;17.73;9.18;;;;;;;;;;5060323;28;20417;-74
2022/11/01 01:10:56;;;;;;;16.08;9.00;;;;;;;;;;5058823;28;20487;-74
2022/11/01 01:13:22;;;;;;;14.38;8.77;;;14.40;99.90;;;;;;5046689;28;20428;-75
2022/11/01 01:15:48;;;;;;;16.25;8.57;;;;;;;;;;5074176;28;20418;-75
2022/11/01 01:18:15;;;;;;;17.42;9.05;;;;;;;;;;5059673;28;20402;-75
2022/11/01 01:20:41;;;;;;;15.07;8.75;;;;;;;;;;5058958;28;20417;-75
2022/11/01 01:23:06;;;;;;;15.30;8.30;;;14.40;99.90;;;;;;5058943;28;20921;-75
2022/11/01 01:25:33;;;;;;;17.95;8.80;;;;;;;;;;5074922;28;20420;-76
2022/11/01 01:27:59;;;;;;;14.70;8.48;;;;;;;;;;5075675;28;20449;-75
2022/11/01 01:30:25;;;;;;;18.77;9.05;;;;;;;;;;5075334;28;20944;-73
2022/11/01 01:32:51;;;;;;;16.48;8.98;;;;;;;;;;5060813;28;20464;-74
2022/11/01 01:35:17;;;;;;;16.60;7.95;;;14.10;99.90;;;;;;5075535;28;20414;-74
2022/11/01 01:37:43;;;;;;;16.52;8.45;;;;;;;;;;5059748;28;20486;-75
2022/11/01 01:40:09;;;;;;;16.35;8.30;;;;;;;;;;5075308;28;20436;-75
2022/11/01 01:42:37;;;;;;;16.83;8.60;;;;;;;;;;5075615;28;20483;-75
2022/11/01 01:45:28;;;;;;;18.88;8.32;;;14.20;99.90;;;;;;5059088;28;20902;-75
2022/11/01 01:47:54;;;;;;;14.45;7.95;;;;;;;;;;5076512;28;20422;-75
2022/11/01 01:50:35;;;;;;;17.00;8.05;;;14.00;99.90;;;;;;5073455;28;20896;-75
2022/11/01 01:53:02;;;;;;;16.52;8.23;;;;;;;;;;5075378;28;20808;-75
2022/11/01 01:55:42;;;;;;;16.73;8.20;;;14.40;99.90;;;;;;5058859;28;20490;-75
2022/11/01 01:58:10;;;;;;;15.27;7.83;;;14.40;99.90;;;;;;5076541;28;20425;-75
2022/11/01 02:00:37;;;;;;;12.43;7.50;;;14.50;99.90;;;;;;5074488;28;20413;-75
2022/11/01 02:03:03;;;;;;;17.13;8.10;;;;;;;;;;5059703;28;20437;-75
2022/11/01 02:05:38;;;;;;;15.07;8.50;;;;;;;;;;5074260;28;20421;-75
2022/11/01 02:08:05;;;;;;;15.88;7.78;;;;;;;;;;5075345;28;20440;-75
2022/11/01 02:10:32;;;;;;;15.43;8.40;;;;;;;;;;5041327;28;20418;-75
2022/11/01 02:12:58;;;;;;;18.58;8.20;;;;;;;;;;5038865;28;20412;-74
2022/11/01 02:15:38;;;;;;;21.42;8.93;;;14.30;99.90;;;;;;5054344;28;20449;-74
2022/11/01 02:18:04;;;;;;;15.88;7.95;;;;;;;;;;5058068;28;20431;-75
2022/11/01 02:20:39;;;;;;;14.82;7.78;;;;;;;;;;5075141;28;20743;-75
2022/11/01 02:23:08;;;;;;;17.33;8.18;;;;;;;;;;5074086;28;20471;-76
2022/11/01 02:25:46;;;;;;;15.18;8.10;;;;;;;;;;5073980;28;20903;-74
2022/11/01 02:28:24;;;;;;;17.63;7.97;;;;;;;;;;5059093;28;20430;-76
2022/11/01 02:31:03;;;;;;;16.75;8.27;;;;;;;;;;5074917;28;20986;-76
2022/11/01 02:33:33;;;;;;;17.85;7.82;;;;;;;;;;5073045;28;20465;-75
2022/11/01 02:36:20;;;;;;;17.77;7.63;;;;;;;;;;5060499;28;20894;-75
2022/11/01 02:38:58;;;;;;;13.75;7.80;;;14.60;99.90;;;;;;5049967;28;20430;-75
2022/11/01 02:41:55;;;;;;;14.23;7.85;;;14.30;99.90;;;;;;5074648;28;20418;-75
2022/11/01 02:44:30;;;;;;;13.38;8.10;;;;;;;;;;5057891;28;20856;-75
2022/11/01 02:47:00;;;;;;;14.23;7.43;;;;;;;;;;5058205;28;20422;-75
2022/11/01 02:49:29;;;;;;;16.92;7.68;;;14.40;99.90;;;;;;5074481;28;20422;-75
2022/11/01 02:51:57;;;;;;;14.70;7.93;;;14.50;99.90;;;;;;5073860;28;20914;-76
2022/11/01 02:54:38;;;;;;;14.48;7.65;;;14.30;99.90;;;;;;5091499;28;20421;-76
2022/11/01 02:57:15;;;;;;;17.13;8.20;;;14.60;99.90;;;;;;5056659;28;20837;-75
2022/11/01 02:59:43;;;;;;;14.95;8.00;;;14.40;99.90;;;;;;5059586;28;20440;-75
2022/11/01 03:02:15;;;;;;;15.20;7.75;;;14.60;99.90;;;;;;5074301;28;20422;-75
2022/11/01 03:04:42;;;;;;;14.55;7.28;;;;;;;;;;5074711;28;20405;-75
2022/11/01 03:07:10;;;;;;;18.15;8.10;;;;;;;;;;5054222;28;20457;-75
2022/11/01 03:09:37;;;;;;;13.18;7.70;;;14.60;99.90;;;;;;5055595;28;20429;-75
2022/11/01 03:12:19;;;;;;;14.35;7.50;;;;;;;;;;5074123;28;20441;-75
2022/11/01 03:14:45;;;;;;;15.98;7.75;;;;;;;;;;5073602;28;20812;-74
2022/11/01 03:17:16;;;;;;;16.27;7.47;;;;;;;;;;5056644;28;20735;-74
2022/11/01 03:19:45;;;;;;;16.00;7.53;;;;;;;;;;5057543;28;20781;-75
2022/11/01 03:22:21;;;;;;;16.27;7.40;;;;;;;;;;5073081;28;20462;-75
2022/11/01 03:24:54;;;;;;;13.27;6.70;;;;;;;;;;5073660;28;20546;-75
2022/11/01 03:27:32;;;;;;;15.65;7.32;;;14.70;99.90;;;;;;5054324;28;20420;-75
2022/11/01 03:30:06;;;;;;;13.43;6.85;;;15.00;99.90;;;;;;5073936;28;20417;-75
2022/11/01 03:32:39;;;;;;;14.50;7.07;;;15.10;99.90;;;;;;5072741;28;20507;-75
2022/11/01 03:35:08;;;;;;;14.55;7.28;;;15.20;99.90;;;;;;5064880;28;20421;-75
2022/11/01 03:37:37;;;;;;;13.00;7.15;;;15.10;99.90;;;;;;5054678;28;20425;-74
2022/11/01 03:40:05;;;;;;;15.43;7.30;;;15.10;99.90;;;;;;5057477;28;20986;-74
2022/11/01 03:42:32;;;;;;;13.45;7.05;;;14.90;99.90;;;;;;5056761;28;20461;-74
2022/11/01 03:45:05;;;;;;;14.80;7.18;;;14.90;99.90;;;;;;5073589;28;20398;-74
2022/11/01 03:47:32;;;;;;;12.32;6.78;;;;;;;;;;5054004;28;20498;-75
2022/11/01 03:50:18;;;;;;;13.90;7.18;;;15.20;99.90;;;;;;5073048;28;20426;-75
2022/11/01 03:52:45;;;;;;;13.82;6.78;;;;;;;;;;5054194;28;20427;-75
2022/11/01 03:55:18;;;;;;;14.03;7.20;;;;;;;;;;5037979;28;20392;-75
2022/11/01 03:57:44;;;;;;;12.20;6.37;;;;;;;;;;5042415;28;20527;-75
2022/11/01 04:00:11;;;;;;;14.43;6.30;;;;;;;;;;5071888;28;20871;-75
2022/11/01 04:02:37;;;;;;;11.98;6.72;;;15.20;99.90;;;;;;5056738;28;20425;-75
2022/11/01 04:05:03;;;;;;;15.40;6.63;;;15.30;99.90;;;;;;5055237;28;20418;-76
2022/11/01 04:07:29;;;;;;;11.65;6.72;;;15.10;99.90;;;;;;5054002;28;20467;-75
2022/11/01 04:09:54;;;;;;;11.32;6.53;;;15.40;99.90;;;;;;5056114;28;20430;-74
2022/11/01 04:12:20;;;;;;;15.02;6.63;;;15.40;99.90;;;;;;5056805;28;20402;-75
2022/11/01 04:20:33;;;;;;;12.45;6.32;;;15.40;99.90;;;;;;5060912;28;20421;-75
2022/11/01 04:22:59;;;;;;;15.75;6.57;;;15.70;99.90;;;;;;5056786;28;20398;-75
2022/11/01 04:25:25;;;;;;;16.20;6.28;;;;;;;;;;5056219;28;20424;-75
2022/11/01 04:27:52;;;;;;;13.35;5.60;;;;;;;;;;5052243;28;20459;-75
2022/11/01 04:30:17;;;;;;;10.48;6.15;;;15.50;99.90;;;;;;5060227;28;20422;-75
2022/11/01 04:32:43;;;;;;;11.95;6.10;;;15.80;99.90;;;;;;5056251;28;20422;-75
2022/11/01 04:35:11;;;;;;;13.93;6.10;;;;;;;;;;5055954;28;20422;-74
2022/11/01 04:37:37;;;;;;;12.17;5.60;;;;;;;;;;5072229;28;20422;-75
2022/11/01 04:40:06;;;;;;;12.95;6.10;;;15.90;99.90;;;;;;5072969;28;20909;-74
2022/11/01 04:42:35;;;;;;;12.27;5.50;;;15.60;99.90;;;;;;5060356;28;20559;-74
2022/11/01 04:45:02;;;;;;;11.73;5.73;;;;;;;;;;5060646;28;21965;-74
2022/11/01 04:47:31;;;;;;;10.48;5.70;;;;;;;;;;5072387;28;20425;-75
2022/11/01 04:49:57;;;;;;;12.23;5.63;;;;;;;;;;5057396;28;20482;-75
2022/11/01 04:52:23;;;;;;;11.98;5.80;;;;;;;;;;5042357;28;20467;-76
2022/11/01 04:54:50;;;;;;;12.75;5.72;;;;;;;;;;5075407;28;20921;-76
2022/11/01 04:57:23;;;;;;;9.30;5.27;;;;;;;;;;5074867;28;20884;-76
2022/11/01 04:59:50;;;;;;;11.32;5.72;;;;;;;;;;5060057;28;20452;-76
2022/11/01 05:02:16;;;;;;;12.73;5.60;;;;;;;;;;5076668;28;20421;-76
2022/11/01 05:04:41;;;;;;;9.52;5.50;;;15.70;99.90;;;;;;5059349;28;20959;-75
2022/11/01 05:07:07;;;;;;;13.00;5.20;;;;;;;;;;5041617;28;20425;-74
2022/11/01 05:09:34;;;;;;;12.77;5.85;;;;;;;;;;5042637;28;20430;-74
2022/11/01 05:12:00;;;;;;;9.68;5.32;;;;;;;;;;5060658;28;20413;-75
2022/11/01 05:14:26;;;;;;;11.02;5.45;;;;;;;;;;5060938;28;20457;-73
2022/11/01 05:16:55;;;;;;;10.48;5.10;;;15.70;99.90;;;;;;5074905;28;20495;-75
2022/11/01 05:19:21;;;;;;;9.65;4.88;;;;;;;;;;5075369;28;20479;-75
2022/11/01 05:21:47;;;;;;;10.45;5.20;;;;;;;;;;5039956;28;20415;-75
2022/11/01 05:24:13;;;;;;;12.37;5.70;;;;;;;;;;5056766;28;20395;-75
2022/11/01 05:26:39;;;;;;;10.60;5.30;;;16.00;99.90;;;;;;5067365;28;20819;-75
2022/11/01 05:29:05;;;;;;;12.57;5.68;;;;;;;;;;5058241;28;20421;-75
2022/11/01 05:31:31;;;;;;;11.43;5.38;;;15.50;99.90;;;;;;5059089;28;20390;-75
2022/11/01 05:33:57;;;;;;;9.10;4.70;;;15.60;99.90;;;;;;5078547;28;21031;-74
2022/11/01 05:36:22;;;;;;;10.07;4.28;;;15.60;99.90;;;;;;5042544;28;20418;-75
2022/11/01 05:38:49;;;;;;;10.87;3.70;;;;;;;;;;5075802;28;20949;-75
2022/11/01 05:41:14;;;;;;;7.55;3.35;;;15.30;99.90;;;;;;5058975;28;20515;-76
2022/11/01 05:43:40;;;;;;;7.90;2.25;;;;;;;;;;5059076;28;20464;-75
2022/11/01 05:46:07;;;;;;;7.20;2.20;;;15.10;99.90;;;;;;5076059;28;20421;-76
2022/11/01 05:48:33;;;;;;;5.45;2.10;;;;;;;;;;5076051;28;20436;-75
2022/11/01 05:51:00;;;;;;;6.53;2.10;;;;;;;;;;5075564;28;20418;-75
2022/11/01 05:53:26;;;;;;;7.03;1.80;;;;;;;;;;5076137;28;20398;-75
2022/11/01 05:55:55;;;;;;;6.85;1.60;;;;;;;;;;5073919;28;20418;-75
2022/11/01 05:58:21;;;;;;;6.10;1.70;;;;;;;;;;5074663;28;20453;-74
2022/11/01 06:00:47;;;;;;;5.60;1.60;;;;;;;;;;5038920;28;20504;-75
2022/11/01 06:03:13;;;;;;;7.05;1.70;;;;;;;;;;5039600;28;20419;-76
2022/11/01 06:05:39;;;;;;;5.57;1.70;;;;;;;;;;5042361;28;20418;-76
2022/11/01 06:08:06;;;;;;;6.25;1.50;;;;;;;;;;5074424;28;20516;-76
2022/11/01 06:10:32;;;;;;;5.70;1.45;;;;;;;;;;5075098;28;20880;-75
2022/11/01 06:12:58;;;;;;;4.10;1.15;;;;;;;;;;5069056;28;20430;-75
2022/11/01 06:15:24;;;;;;;4.93;1.50;;;;;;;;;;5038730;28;20503;-75
2022/11/01 06:17:57;;;;;;;3.53;1.50;;;;;;;;;;5036160;28;20908;-75
2022/11/01 06:20:28;;;;;;;6.18;1.40;;;14.30;99.90;;;;;;5055713;28;20399;-75
2022/11/01 06:22:57;;;;;;;6.75;1.60;;;;;;;;;;5054329;28;20416;-75
2022/11/01 06:25:23;;;;;;;4.93;1.20;;;14.50;99.90;;;;;;5038895;28;20431;-75
2022/11/01 06:27:50;;;;;;;4.97;1.15;;;;;;;;;;5037014;28;20444;-75
2022/11/01 06:30:15;;;;;;;7.65;1.33;;;14.40;99.90;;;;;;5055745;28;20423;-76
2022/11/01 06:32:41;;;;;;;3.88;1.30;;;14.10;99.90;;;;;;5050917;28;20423;-76
2022/11/01 06:35:08;;;;;;;4.15;1.40;;;;;;;;;;5066774;28;20419;-76
2022/11/01 06:37:34;;;;;;;5.80;1.30;;;;;;;;;;5051839;28;20511;-75
2022/11/01 06:40:00;;;;;;;4.65;1.17;;;;;;;;;;5016913;28;20439;-76
2022/11/01 06:42:26;;;;;;;6.25;1.20;;;;;;;;;;5031032;28;20480;-76
2022/11/01 06:44:52;;;;;;;4.88;1.50;;;;;;;;;;5037355;28;20423;-76
2022/11/01 06:47:18;;;;;;;8.43;1.55;;;;;;;;;;5055662;28;20417;-75
2022/11/01 06:49:44;;;;;;;8.05;1.73;;;;;;;;;;5043158;28;20422;-75
2022/11/01 06:52:11;;;;;;;8.02;1.80;;;;;;;;;;5022507;28;20539;-77
2022/11/01 06:54:37;;;;;;;8.23;1.83;;;;;;;;;;5036983;28;20481;-77
2022/11/01 06:57:03;;;;;;;8.27;1.70;;;;;;;;;;5018380;28;20992;-77
2022/11/01 06:59:29;;;;;;;9.32;2.20;;;;;;;;;;5048007;28;20895;-77
2022/11/01 07:01:58;;;;;;;13.20;2.40;;;;;;;;;;5052679;28;20423;-77
2022/11/01 07:05:21;;;;;;;8.98;2.20;;;;;;;;;;5104962;27;20388;-77
2022/11/01 07:07:47;;;;;;;8.30;1.90;;;;;;;;;;5107921;28;20792;-77
2022/11/01 07:10:13;;;;;;;9.07;2.08;;;;;;;;;;5054103;28;20505;-76
2022/11/01 07:12:39;;;;;;;9.77;1.87;;;;;;;;;;5068247;28;20419;-79
2022/11/01 07:15:06;;;;;;;7.97;1.85;;;;;;;;;;5073895;28;20444;-79
2022/11/01 07:17:32;;;;;;;11.88;1.98;;;;;;;;;;5087305;28;20622;-78
2022/11/01 07:19:57;;;;;;;10.75;1.92;;;14.10;99.90;;;;;;5070113;28;20476;-78
2022/11/01 07:23:04;;;;;;;7.47;1.90;;;14.10;99.90;;;;;;5104695;27;2191694;-79
2022/11/01 07:25:31;;;;;;;7.30;1.80;;;14.30;99.90;;;;;;5118814;27;20928;-79
2022/11/01 07:27:58;;;;;;;7.97;1.83;;;;;;;;;;5121802;27;20415;-80
2022/11/01 07:30:27;;;;;;;9.75;2.15;;;;;;;;;;5103595;27;20952;-78
2022/11/01 07:33:02;;;;;;;11.80;2.40;;;14.10;99.90;;;;;;5107739;28;20511;-79
2022/11/01 07:35:28;;;;;;;9.95;2.08;;;;;;;;;;5108984;27;20400;-79
2022/11/01 07:37:59;;;;;;;9.77;2.20;;;14.00;99.90;;;;;;5114259;27;20453;-79
2022/11/01 07:40:28;;;;;;;10.82;2.00;;;;;;;;;;5119732;27;20478;-80
2022/11/01 07:42:59;;;;;;;9.27;2.38;;;;;;;;;;5112874;27;20416;-80
2022/11/01 07:45:26;;;;;;;10.27;2.00;;;;;;;;;;5094878;28;20469;-79
2022/11/01 07:47:57;;;;;;;11.43;2.10;;;;;;;;;;5108638;28;20412;-80
2022/11/01 07:50:23;;;;;;;9.32;2.25;;;;;;;;;;5107280;27;22100;-80
2022/11/01 07:53:01;;;;;;;13.57;2.65;;;14.40;99.90;;;;;;5130684;27;20500;-80
2022/11/01 07:55:28;;;;;;;10.18;2.40;;;;;;;;;;5094952;27;20455;-80
2022/11/01 07:57:54;;;;;;;11.27;2.25;;;;;;;;;;5111405;28;20396;-81
2022/11/01 08:00:20;;;;;;;11.05;2.20;;;;;;;;;;5095229;28;20419;-81
2022/11/01 08:02:46;;;;;;;11.50;2.00;;;;;;;;;;5114698;27;20504;-80
2022/11/01 08:05:12;;;;;;;16.10;2.27;;;14.60;99.90;;;;;;5121629;27;20421;-80
2022/11/01 08:07:38;;;;;;;12.67;2.50;;;;;;;;;;5105247;27;20406;-79
2022/11/01 08:10:09;;;;;;;17.33;2.95;;;;;;;;;;5099189;27;20447;-81
2022/11/01 08:12:35;;;;;;;11.82;2.60;;;;;;;;;;5110892;27;20928;-78
2022/11/01 08:15:01;;;;;;;10.98;2.40;;;;;;;;;;5091537;28;20447;-80
2022/11/01 08:17:30;;;;;;;13.95;3.22;;;;;;;;;;5101244;28;20438;-79
2022/11/01 08:19:56;;;;;;;11.97;2.90;;;;;;;;;;5096060;27;20419;-80
2022/11/01 08:22:22;;;;;;;11.80;2.72;;;;;;;;;;5083070;28;20529;-80
2022/11/01 08:24:48;;;;;;;13.50;2.53;;;;;;;;;;5122502;28;20832;-82
2022/11/01 08:27:14;;;;;;;10.98;2.53;;;;;;;;;;5116675;28;20431;-81
2022/11/01 08:29:41;;;;;;;14.60;2.83;;;;;;;;;;5105006;28;20550;-77
2022/11/01 08:32:07;;;;;;;15.37;3.60;;;;;;;;;;5093907;28;20419;-78
2022/11/01 08:34:33;;;;;;;11.95;2.63;;;;;;;;;;5098448;28;20420;-82
2022/11/01 08:36:59;;;;;;;11.27;2.65;;;;;;;;;;5094103;28;20418;-81
2022/11/01 08:39:28;;;;;;;13.18;2.63;;;;;;;;;;5100703;28;20930;-81
2022/11/01 08:41:56;;;;;;;15.32;3.13;;;;;;;;;;5074403;28;20422;-81
2022/11/01 08:44:22;;;;;;;14.70;2.95;;;;;;;;;;5080704;28;20410;-81
2022/11/01 08:46:53;;;;;;;16.05;2.95;;;14.40;99.90;;;;;;5097523;28;20420;-81
2022/11/01 08:49:19;;;;;;;15.45;3.53;;;;;;;;;;5071778;28;20467;-82
2022/11/01 08:51:44;;;;;;;17.60;3.08;;;14.50;99.90;;;;;;5093823;28;20424;-81
2022/11/01 08:54:11;;;;;;;15.40;2.93;;;;;;;;;;5108337;28;20431;-81
2022/11/01 08:56:36;;;;;;;17.83;3.58;;;14.60;99.90;;;;;;5091010;28;20428;-82
2022/11/01 08:59:02;;;;;;;17.13;3.45;;;15.00;99.90;;;;;;5072800;28;20429;-81
2022/11/01 09:01:28;;;;;;;15.57;3.20;;;;;;;;;;5094141;28;20510;-81
2022/11/01 09:03:55;;;;;;;15.48;3.40;;;;;;;;;;5067983;28;20446;-80
2022/11/01 09:06:21;;;;;;;16.73;3.70;;;15.20;99.90;;;;;;5087509;28;20936;-80
2022/11/01 09:08:49;;;;;;;14.87;3.17;;;;;;;;;;5082761;28;20418;-80
2022/11/01 09:11:17;;;;;;;15.50;3.55;;;;;;;;;;5082791;28;20433;-80
2022/11/01 09:13:43;;;;;;;16.42;2.78;;;;;;;;;;5090175;28;20415;-81
2022/11/01 09:16:09;;;;;;;14.50;3.20;;;;;;;;;;5084381;28;20440;-80
2022/11/01 09:18:35;;;;;;;13.88;3.10;;;;;;;;;;5057946;28;20405;-80
2022/11/01 09:21:01;;;;;;;17.10;3.55;;;;;;;;;;5095365;27;20982;-79
2022/11/01 09:23:27;;;;;;;17.48;3.80;;;;;;;;;;5095326;27;20418;-79
2022/11/01 09:26:04;;;;;;;16.42;2.97;;;15.40;99.90;;;;;;5091412;28;20412;-80
2022/11/01 09:28:30;;;;;;;14.30;3.20;;;;;;;;;;5079830;27;20420;-80
2022/11/01 09:30:56;;;;;;;14.40;3.42;;;;;;;;;;5113752;27;20552;-79
2022/11/01 09:33:23;;;;;;;13.73;3.20;;;15.80;99.90;;;;;;5101005;27;20428;-79
2022/11/01 09:35:53;;;;;;;13.93;3.22;;;;;;;;;;5116184;27;20399;-81
2022/11/01 09:38:19;;;;;;;14.35;3.40;;;;;;;;;;5074614;28;20426;-79
2022/11/01 09:40:50;;;;;;;14.00;3.38;;;16.00;99.90;;;;;;5098541;28;20415;-80
2022/11/01 09:43:20;;;;;;;14.80;2.90;;;;;;;;;;5084824;27;20425;-81
2022/11/01 09:45:49;;;;;;;17.15;3.28;;;16.00;99.90;;;;;;5083633;28;20413;-80
2022/11/01 09:48:16;;;;;;;18.25;3.42;;;16.00;99.90;;;;;;5075230;28;20412;-79
2022/11/01 09:50:42;;;;;;;14.60;2.80;;;;;;;;;;5049969;28;20468;-80
2022/11/01 09:53:13;;;;;;;12.57;3.17;;;;;;;;;;5058557;28;20398;-80
2022/11/01 09:55:39;;;;;;;13.55;2.97;;;;;;;;;;5075586;28;20425;-80
2022/11/01 09:58:16;;;;;;;13.47;3.13;;;;;;;;;;5058850;28;20398;-77
2022/11/01 10:00:51;;;;;;;15.90;3.92;;;15.80;99.90;;;;;;5108217;27;20415;-80
2022/11/01 10:03:41;;;;;;;14.50;3.20;;;16.10;99.90;;;;;;5114713;27;20426;-77
2022/11/01 10:06:14;;;;;;;12.18;3.30;;;16.30;99.90;;;;;;5073685;28;20503;-81
2022/11/01 10:09:12;;;;;;;17.25;3.58;;;16.10;99.90;;;;;;5099245;28;20421;-81
2022/11/01 10:11:56;;;;;;;14.63;3.10;;;;;;;;;;5075918;28;20491;-81
2022/11/01 10:15:00;;;;;;;13.93;3.30;;;;;;;;;;5085787;27;2155530;-80
2022/11/01 10:17:26;;;;;;;14.05;3.45;;;;;;;;;;5132376;27;20394;-79
2022/11/01 10:19:52;;;;;;;13.70;3.40;;;;;;;;;;5094461;28;20443;-80
2022/11/01 10:22:29;;;;;;;17.83;3.00;;;;;;;;;;5091644;28;20423;-79
2022/11/01 10:25:15;;;;;;;13.63;3.20;;;16.20;99.90;;;;;;5090227;28;20424;-80
2022/11/01 10:28:03;;;;;;;16.10;3.40;;;16.20;99.90;;;;;;5098739;28;20415;-79
2022/11/01 10:30:40;;;;;;;15.60;3.58;;;16.20;99.90;;;;;;5090510;28;20423;-81
2022/11/01 10:33:18;;;;;;;14.43;3.53;;;;;;;;;;5102986;28;20418;-80
2022/11/01 10:35:45;;;;;;;15.47;3.07;;;;;;;;;;5091029;28;20851;-81
2022/11/01 10:38:16;;;;;;;18.23;3.70;;;16.10;99.90;;;;;;5077896;28;20500;-81
2022/11/01 10:40:49;;;;;;;13.52;3.00;;;16.20;99.90;;;;;;5101671;28;20479;-81
2022/11/01 10:43:19;;;;;;;14.85;3.35;;;;;;;;;;5099782;28;20513;-79
2022/11/01 10:45:48;;;;;;;15.77;3.30;;;15.50;99.90;;;;;;5090939;28;20416;-81
2022/11/01 10:48:27;;;;;;;13.23;2.90;;;;;;;;;;5100641;28;20496;-80
2022/11/01 10:50:59;;;;;;;15.40;3.20;;;;;;;;;;5091820;28;20557;-81
2022/11/01 10:53:30;;;;;;;15.27;3.40;;;;;;;;;;5100293;28;20416;-81
2022/11/01 10:56:01;;;;;;;13.65;3.05;;;15.50;99.90;;;;;;5105823;28;20443;-82
2022/11/01 10:58:36;;;;;;;15.27;3.10;;;;;;;;;;5097214;28;20436;-78
2022/11/01 11:01:03;;;;;;;14.75;3.15;;;;;;;;;;5085949;28;20484;-81
2022/11/01 11:03:32;;;;;;;12.05;2.78;;;15.20;99.90;;;;;;5079805;28;20444;-82
2022/11/01 11:06:04;;;;;;;16.50;3.20;;;15.30;99.90;;;;;;5105143;28;21069;-81
2022/11/01 11:08:31;;;;;;;17.90;3.22;;;15.50;99.90;;;;;;5100141;28;20504;-81
2022/11/01 11:11:02;;;;;;;14.93;2.70;;;15.50;99.90;;;;;;5090051;28;20922;-80
2022/11/01 11:13:29;;;;;;;15.70;3.58;;;15.70;99.90;;;;;;5077102;28;20440;-80
2022/11/01 11:16:01;;;;;;;12.63;3.15;;;15.50;99.90;;;;;;5090470;28;20413;-80
2022/11/01 11:18:32;;;;;;;14.07;3.00;;;;;;;;;;5074394;28;20904;-80
2022/11/01 11:21:01;;;;;;;15.25;3.50;;;15.50;99.90;;;;;;5074318;28;20877;-80
2022/11/01 11:23:31;;;;;;;18.23;4.05;;;15.50;99.90;;;;;;5101032;28;20449;-81
2022/11/01 11:26:02;;;;;;;16.38;2.95;;;;;;;;;;5094020;28;20415;-79
2022/11/01 11:28:33;;;;;;;15.40;3.10;;;15.70;99.90;;;;;;5087262;28;20499;-80
2022/11/01 11:31:33;;;;;;;19.30;2.92;;;15.60;99.90;;;;;;5076980;28;20425;-80
2022/11/01 11:34:03;;;;;;;14.20;3.83;;;;;;;;;;5051369;28;20430;-80
2022/11/01 11:36:32;;;;;;;11.65;2.78;;;15.90;99.90;;;;;;5065107;28;20455;-80
2022/11/01 11:38:59;;;;;;;17.10;3.22;;;16.10;99.90;;;;;;5072183;28;20481;-79
2022/11/01 11:42:43;;;;;;;16.85;3.28;;;16.10;99.90;;;;;;5076039;27;1967791;-79
2022/11/01 11:45:18;;;;;;;14.45;3.08;;;16.20;99.90;;;;;;5126773;27;20478;-80
2022/11/01 11:47:46;;;;;;;13.90;3.45;;;16.40;99.90;;;;;;5137333;27;20420;-80
2022/11/01 11:50:18;;;;;;;16.27;3.05;;;16.80;99.90;;;;;;5103571;28;20470;-80
2022/11/01 11:52:48;;;;;;;13.17;2.90;;;16.40;99.90;;;;;;5153481;27;20502;-80
2022/11/01 11:55:39;;;;;;;13.23;3.10;;;16.80;99.90;;;;;;5123810;27;20541;-80
2022/11/01 11:58:06;;;;;;;14.07;2.80;;;;;;;;;;5143877;27;20455;-81
2022/11/01 12:00:36;;;;;;;15.93;3.13;;;;;;;;;;5110670;27;20893;-78
2022/11/01 12:03:05;;;;;;;15.15;3.58;;;16.50;99.90;;;;;;5110541;27;20513;-82
2022/11/01 12:05:33;;;;;;;17.50;3.27;;;16.40;99.90;;;;;;5128776;27;20925;-82
2022/11/01 12:07:59;;;;;;;14.60;2.75;;;;;;;;;;5143088;27;20415;-82
2022/11/01 12:10:36;;;;;;;11.82;2.78;;;;;;;;;;5107086;27;20423;-79
2022/11/01 12:13:36;;;;;;;12.40;2.97;;;16.70;99.90;;;;;;5118910;27;20426;-81
2022/11/01 12:16:19;;;;;;;10.88;3.08;;;;;;;;;;5087616;27;20406;-81
2022/11/01 12:18:51;;;;;;;19.13;3.05;;;16.90;99.90;;;;;;5115561;27;20941;-82
2022/11/01 12:21:29;;;;;;;10.23;2.60;;;16.70;99.90;;;;;;5112708;27;20457;-82
2022/11/01 12:24:23;;;;;;;15.50;3.05;;;17.10;99.90;;;;;;5123810;28;20541;-81
2022/11/01 12:26:53;;;;;;;12.13;2.72;;;17.10;99.90;;;;;;5104073;28;20444;-81
2022/11/01 12:29:28;;;;;;;14.75;3.00;;;;;;;;;;5082665;28;20405;-80
2022/11/01 12:32:03;;;;;;;11.32;2.42;;;17.60;99.90;;;;;;5136982;27;20424;-79
2022/11/01 12:34:35;;;;;;;12.35;2.90;;;17.30;99.90;;;;;;5078634;28;20436;-80
2022/11/01 12:37:19;;;;;;;13.85;2.60;;;17.20;99.90;;;;;;5096678;28;20478;-82
2022/11/01 12:40:05;;;;;;;11.38;2.67;;;17.40;99.90;;;;;;5123415;27;20466;-79
2022/11/01 12:42:44;;;;;;;9.98;2.90;;;17.50;99.90;;;;;;5124475;27;20438;-81
2022/11/01 12:45:15;;;;;;;10.90;2.35;;;;;;;;;;5097761;28;20415;-81
2022/11/01 12:47:51;;;;;;;10.95;2.42;;;17.00;99.90;;;;;;5091762;28;20416;-81
2022/11/01 12:50:26;;;;;;;12.25;2.50;;;16.90;99.90;;;;;;5093523;28;20495;-82
2022/11/01 12:53:06;;;;;;;12.63;2.90;;;16.60;99.90;;;;;;5095009;28;20935;-81
2022/11/01 12:55:35;;;;;;;13.65;2.90;;;16.70;99.90;;;;;;5080729;28;20432;-81
2022/11/01 12:58:10;;;;;;;14.57;2.75;;;16.80;99.90;;;;;;5072133;28;20410;-82
2022/11/01 13:00:59;;;;;;;10.38;2.53;;;16.60;99.90;;;;;;5081045;28;20406;-81
2022/11/01 13:03:44;;;;;;;9.90;2.55;;;;;;;;;;5076761;28;20934;-81
2022/11/01 13:06:17;;;;;;;11.98;2.72;;;;;;;;;;5093738;28;20409;-81
2022/11/01 13:09:06;;;;;;;10.43;2.63;;;;;;;;;;5059415;28;20957;-81
2022/11/01 13:11:56;;;;;;;13.43;2.70;;;16.90;99.90;;;;;;5073959;28;20432;-82
2022/11/01 13:14:35;;;;;;;11.93;2.80;;;;;;;;;;5130412;27;20400;-82
2022/11/01 13:17:07;;;;;;;15.30;3.10;;;;;;;;;;5094300;28;20772;-81
2022/11/01 13:19:56;;;;;;;14.27;2.53;;;16.80;99.90;;;;;;5095921;28;20400;-82
2022/11/01 13:22:45;;;;;;;11.98;3.03;;;16.40;99.90;;;;;;5112974;27;20878;-82
2022/11/01 13:25:21;;;;;;;11.03;2.33;;;16.60;99.90;;;;;;5128632;27;20424;-82
2022/11/01 13:28:10;;;;;;;10.30;2.35;;;16.50;99.90;;;;;;5123634;27;20416;-81
2022/11/01 13:30:38;;;;;;;11.83;2.63;;;;;;;;;;5064101;28;20921;-81
2022/11/01 13:33:13;;;;;;;9.45;2.00;;;;;;;;;;5096868;28;20439;-83
2022/11/01 13:35:39;;;;;;;13.60;3.30;;;;;;;;;;5075311;28;20414;-82
2022/11/01 13:38:05;;;;;;;12.05;2.65;;;;;;;;;;5086668;28;20418;-82
2022/11/01 13:40:43;;;;;;;8.93;2.30;;;;;;;;;;5072092;28;20419;-82
2022/11/01 13:43:17;;;;;;;10.48;2.08;;;16.40;99.90;;;;;;5069308;28;20424;-82
2022/11/01 13:45:46;;;;;;;8.77;2.20;;;;;;;;;;5072607;28;20419;-82
2022/11/01 13:48:31;;;;;;;11.02;2.58;;;;;;;;;;5117976;27;20422;-80
2022/11/01 13:51:07;;;;;;;11.80;2.42;;;;;;;;;;5080042;28;20519;-81
2022/11/01 13:53:37;;;;;;;12.00;2.85;;;;;;;;;;5067449;28;20456;-81
2022/11/01 13:56:08;;;;;;;10.88;2.22;;;;;;;;;;5067338;28;20443;-81
2022/11/01 13:58:34;;;;;;;12.77;2.10;;;16.30;99.90;;;;;;5089664;28;20528;-83
2022/11/01 14:01:19;;;;;;;8.40;2.47;;;;;;;;;;5076156;28;21009;-82
2022/11/01 14:03:45;;;;;;;12.13;2.50;;;;;;;;;;5091843;28;20424;-82
2022/11/01 14:06:26;;;;;;;11.30;2.42;;;16.20;99.90;;;;;;5079967;27;20410;-82
2022/11/01 14:09:19;;;;;;;8.48;2.00;;;16.10;99.90;;;;;;5078951;28;20996;-83